Effective Sunday, March 17, 2024, the National Weather Service National Data Buoy Center will discontinue its Dial-A-Buoy Interactive Voice Response system. For more information, see Service Change Notice 24-06 (PDF).

Station JLXA2 - Juneau Library, AK Image indicating link to RSS feed of recent meteorological observations for station JLXA2


Conditions at JLXA2 as of
(11:03 pm AKST on 02/20/2024)
0803 GMT on 02/21/2024:
     

Click on the graph icon in the table below to see a time series plot of the last five days of that observation.

5-day plot - Wind Direction Wind Direction (WDIR):ESE ( 110 deg true )
5-day plot - Wind Speed Wind Speed (WSPD): 3 kts
5-day plot - Wind Gust Wind Gust (GST): 8 kts
5-day plot - Air Temperature Air Temperature (ATMP): 35.1 °F
5-day plot - Dew Point Dew Point (DEWP): 35.1 °F
5-day plot - Wind Chill Wind Chill (CHILL): 32.4 °F
5-day plot - Wind Speed at 10 Meters Wind Speed at 10 meters (WSPD10M): 4 kts
5-day plot - Wind Speed at 20 Meters Wind Speed at 20 meters (WSPD20M): 4 kts
5-day plot -  Wind Speed, Wind Gust and Atmospheric Pressure Combined plot of Wind Speed, Gust, and Air Pressure
Previous observations
TIME
(AKST)
5-day plot - Wind Direction
WDIR
 
5-day plot - Wind Speed
WSPD
kts
5-day plot - Wind Gust
GST
kts
5-day plot - Wave Height
WVHT
ft
5-day plot - Dominant Wave Period
DPD
sec
5-day plot - Average Wave Period
APD
sec
5-day plot - Mean Wave Direction
MWD
 
5-day plot - Atmospheric Pressure
PRES
in
5-day plot - Pressure Tendency
PTDY
in
5-day plot - Air Temperature
ATMP
°F
5-day plot - Water Temperature
WTMP
°F
5-day plot - Dew Point
DEWP
°F
5-day plot - Salinity
SAL
psu
5-day plot - Visibility
VIS
nmi
5-day plot - Tide (above MLLW)
TIDE
ft
2024-02-20 10:53 pmESE 4 7------ 35.1- 35.1---
2024-02-20 10:43 pmESE 4 9------ 35.1- 35.1---
2024-02-20 10:33 pmESE 4 9------ 35.1- 35.1---
2024-02-20 10:23 pm SE 3 9------ 35.1- 35.1---
2024-02-20 10:13 pm SE 3 8------ 35.1- 35.1---
2024-02-20 10:03 pmESE 4 9------ 34.9- 34.9---
2024-02-20 09:53 pm SE 3 7------ 34.9- 34.9---
2024-02-20 09:43 pmESE 2 6------ 34.9- 34.9---
2024-02-20 09:33 pm SE 3 7------ 34.9- 34.9---
2024-02-20 09:23 pmESE 4 9------ 34.9- 34.9---
2024-02-20 09:13 pm SE 4 9------ 35.1- 35.1---
2024-02-20 09:03 pmSSE 3 8------ 35.2- 35.2---
2024-02-20 08:53 pmSSE 3 6------ 35.2- 35.2---
2024-02-20 08:43 pmESE 4 9------ 35.1- 35.1---
2024-02-20 08:33 pmESE 5 10------ 35.2- 35.2---
2024-02-20 08:23 pmESE 5 10------ 35.4- 35.4---
2024-02-20 08:13 pmESE 3 7------ 35.4- 35.4---
2024-02-20 08:03 pm SE 4 9------ 35.4- 35.4---
2024-02-20 07:53 pmESE 4 9------ 35.4- 35.4---
2024-02-20 07:43 pm SE 4 7------ 35.4- 35.4---
2024-02-20 07:33 pm SE 4 7------ 35.4- 35.4---
2024-02-20 07:23 pm SE 4 9------ 35.6- 35.6---
2024-02-20 07:13 pm SE 4 9------ 35.6- 35.6---
2024-02-20 07:03 pm SE 4 8------ 35.8- 35.8---
2024-02-20 06:53 pm SE 4 9------ 35.8- 35.8---
2024-02-20 06:43 pm SE 5 10------ 35.8- 35.8---
2024-02-20 06:29 pmESE 4 9------ 36.0- 36.0---
2024-02-20 06:13 pm SE 5 10------ 36.0- 36.0---
2024-02-20 06:03 pm SE 3 7------ 36.0- 36.0---
2024-02-20 05:53 pm SE 3 7------ 36.0- 36.0---
2024-02-20 05:43 pm SE 4 8------ 36.0- 36.0---
2024-02-20 05:33 pm SE 4 7------ 36.0- 36.0---
2024-02-20 05:23 pm SE 4 9------ 36.1- 36.1---
2024-02-20 05:13 pm SE 4 9------ 36.1- 36.1---
2024-02-20 05:03 pm SE 3 8------ 36.3- 36.3---
2024-02-20 04:53 pm SE 3 8------ 36.3- 36.3---
2024-02-20 04:43 pm SE 3 7------ 36.5- 36.5---
2024-02-20 04:33 pm SE 3 7------ 36.5- 36.5---
2024-02-20 04:23 pmSSE 3 7------ 36.5- 36.5---
2024-02-20 04:13 pmSSE 4 9------ 36.5- 36.5---
2024-02-20 04:03 pmSSE 4 8------ 36.5- 36.5---
2024-02-20 03:53 pmSSE 4 8------ 36.7- 36.7---
2024-02-20 03:43 pmSSE 3 8------ 37.2- 37.0---
2024-02-20 03:33 pm SE 2 6------ 37.8- 37.4---
2024-02-20 03:23 pmSSE 4 9------ 37.6- 37.0---
2024-02-20 03:13 pmSSE 4 8------ 38.7- 37.6---
2024-02-20 02:53 pm SE 4 9------ 38.8- 37.4---
2024-02-20 02:43 pm SE 5 9------ 38.5- 37.2---
2024-02-20 02:33 pmSSE 4 8------ 38.8- 37.4---
2024-02-20 02:23 pm SE 4 8------ 39.4- 37.6---
2024-02-20 02:13 pm SE 5 10------ 39.4- 37.4---
2024-02-20 02:03 pm SE 5 11------ 39.9- 37.6---
2024-02-20 01:53 pm SE 5 10------ 39.9- 37.9---
2024-02-20 01:43 pm SE 4 10------ 39.7- 38.1---
2024-02-20 01:33 pm SE 4 8------ 39.4- 37.8---
2024-02-20 01:23 pm SE 4 8------ 39.2- 37.8---
2024-02-20 01:13 pm SE 3 7------ 38.7- 37.6---
2024-02-20 01:03 pmSSE 4 7------ 38.1- 37.4---
2024-02-20 12:53 pm S 2 6------ 38.5- 37.6---
2024-02-20 12:43 pm SE 2 6------ 38.8- 37.6---
2024-02-20 12:33 pm SE 3 8------ 38.5- 37.2---
2024-02-20 12:23 pmESE 2 7------ 38.1- 37.4---
2024-02-20 12:13 pmSSE 2 5------ 37.4- 37.2---
2024-02-20 12:03 pm SE 2 6------ 37.2- 37.2---
2024-02-20 11:53 amSSE 1 5------ 37.0- 37.0---
2024-02-20 11:43 amSSE 3 5------ 36.1- 36.1---
2024-02-20 11:33 am S 3 5------ 36.0- 36.0---
2024-02-20 11:23 am S 2 4------ 36.0- 36.0---
2024-02-20 11:13 amSSE 2 5------ 35.8- 35.8---
2024-02-20 11:03 amSSE 3 8------ 35.6- 35.6---
2024-02-20 10:53 amSSE 3 5------ 35.8- 35.8---
2024-02-20 10:43 am S 2 4------ 36.0- 36.0---
2024-02-20 10:33 am S 2 3------ 35.8- 35.8---
2024-02-20 10:23 amSSE 2 5------ 35.6- 35.6---
2024-02-20 10:13 amSSE 2 4------ 35.6- 35.6---
2024-02-20 10:03 amSSE 2 4------ 35.6- 35.6---
2024-02-20 09:53 amSSE 1 3------ 35.4- 35.4---
2024-02-20 09:43 am- 0 2------ 35.4- 35.4---
2024-02-20 09:33 am E 1 2------ 35.1- 35.1---
2024-02-20 09:23 amESE 1 3------ 35.1- 35.1---
2024-02-20 09:13 amSSE 2 4------ 34.9- 34.9---
2024-02-20 09:03 am S 1 3------ 35.1- 35.1---
2024-02-20 08:53 am- 0 3------ 34.9- 34.9---
2024-02-20 08:43 am- 0 2------ 34.9- 34.9---
2024-02-20 08:33 amSSE 1 3------ 34.9- 34.9---
2024-02-20 08:23 am SE 1 3------ 34.9- 34.9---
2024-02-20 08:13 amSSE 2 4------ 34.9- 34.9---
2024-02-20 08:03 am SE 2 4------ 35.1- 35.1---
2024-02-20 07:53 am SE 2 3------ 35.2- 35.2---
2024-02-20 07:43 am SE 1 3------ 35.6- 35.6---
2024-02-20 07:33 amSSE 1 3------ 35.8- 35.8---
2024-02-20 07:23 am S 1 2------ 35.8- 35.8---
2024-02-20 07:13 am- 0 1------ 36.0- 36.0---
2024-02-20 07:03 am- 0 2------ 35.8- 35.8---
2024-02-20 06:53 am- 0 1------ 35.6- 35.6---
2024-02-20 06:43 am- 0 2------ 35.4- 35.4---
2024-02-20 06:23 am- 0 2------ 35.2- 35.2---
2024-02-20 06:13 am- 0 2------ 35.1- 35.1---
2024-02-20 06:03 am- 0 1------ 34.9- 34.9---
2024-02-20 05:53 am- 0 2------ 34.9- 34.9---
2024-02-20 05:43 amESE 1 2------ 34.7- 34.7---
2024-02-20 05:33 am SE 1 2------ 34.9- 34.9---
2024-02-20 05:23 amSSE 1 3------ 35.1- 35.1---
2024-02-20 05:13 am- 0 1------ 35.1- 35.1---
2024-02-20 05:03 am- 0 2------ 35.2- 35.2---
2024-02-20 04:53 am- 0 2------ 35.2- 35.2---
2024-02-20 04:43 am S 1 3------ 35.4- 35.4---
2024-02-20 04:33 am- 0 2------ 35.6- 35.6---
2024-02-20 04:23 am SE 1 2------ 35.8- 35.8---
2024-02-20 04:13 amSSE 1 2------ 36.0- 36.0---
2024-02-20 04:03 amNNE 2 3------ 35.8- 35.8---
2024-02-20 03:53 amESE 2 3------ 35.6- 35.6---
2024-02-20 03:43 am SE 1 3------ 35.6- 35.6---
2024-02-20 03:33 am- 0 3------ 36.0- 36.0---
2024-02-20 03:23 amESE 1 3------ 36.0- 36.0---
2024-02-20 03:13 am SE 1 2------ 36.0- 36.0---
2024-02-20 03:03 amSSE 1 3------ 36.1- 36.1---
2024-02-20 02:53 am- 0 2------ 36.3- 36.3---
2024-02-20 02:43 am- 0 2------ 36.1- 36.1---
2024-02-20 02:33 amSSE 1 2------ 36.1- 36.1---
2024-02-20 02:23 am- 0 2------ 36.1- 36.1---
2024-02-20 02:13 am- 0 1------ 36.3- 36.3---
2024-02-20 02:03 am- 0 2------ 36.3- 36.3---
2024-02-20 01:53 am- 0 2------ 36.5- 36.5---
2024-02-20 01:43 am- 0 1------ 36.7- 36.7---
2024-02-20 01:33 am- 0 1------ 36.5- 36.5---
2024-02-20 01:23 am- 0 2------ 36.5- 36.5---
2024-02-20 01:13 amESE 1 3------ 36.7- 36.7---
2024-02-20 01:03 am- 0 2------ 36.7- 36.7---
2024-02-20 12:53 am NW 1 3------ 36.9- 36.9---
2024-02-20 12:43 amESE 1 3------ 36.7- 36.7---
2024-02-20 12:33 am SE 1 3------ 36.7- 36.7---
2024-02-20 12:23 am- 0 3------ 37.0- 36.9---
2024-02-20 12:13 am- 0 1------ 37.2- 37.0---
2024-02-20 12:03 am- 0 1------ 37.2- 37.0---
2024-02-19 11:53 pm- 0 2------ 37.2- 37.0---
2024-02-19 11:43 pm- 0 2------ 37.4- 37.2---
2024-02-19 11:33 pm- 0 2------ 37.2- 37.0---
2024-02-19 11:23 pm- 0 1------ 37.4- 37.2---
2024-02-19 11:13 pm- 0 1------ 37.2- 37.0---
2024-02-19 11:03 pm W 1 2------ 37.2- 37.0---
2024-02-19 10:53 pm- 0 2------ 37.4- 37.2---